Monroe, NE (68647)

18:08 CDT le 04 septembre 2015 (GMT -0500)
KNEMONRO3 | | Change Station
CLOSE
Current Station
Stations météorologiques personnelles
Location: Monroe, NE
Altitude: 1525 ft
Stations météo à proximité

Alt. 1525 ft 41.47 °N, 97.62 °W | Updated 3 minutes ago

Ciel dégagé
Ciel dégagé
87.3 ° F
Paraît 95 ° F
N
3.8
Vent Variable Vent de ESE
Gusts 9.2 mph

Aujourd'hui
Haut(e) -- | Bas -- ° F
--% Risque de précip.
Hier
Haut(e) -- | Bas -- ° F
Precip. -- pouce
6:59 AM 7:58 PM
Lune gibbeuse décroissante, 55% visible
Pression 29.82 pouce
Visibilité 10.0 Miles terrestres
Nuages Ciel dégagé
indice de chaleur 95 ° F
Point de rosée 73 ° F
Humidité 62%
Précipitations 0.05 pouce
Profondeur de la couche neigeuse Non disponible.
UV 2 sur 12
Pollen 7.70 sur 12
Qualité de l'air Non disponible.
Flu Activity Non disponible.
METAR KOLU 042255Z AUTO 15005KT 10SM CLR 31/21 A2982 RMK AO1
Pression 29.82 pouce
Visibilité 10.0 Miles terrestres
Nuages Ciel dégagé
indice de chaleur 95 ° F
Point de rosée 73 ° F
Humidité 62%
Précipitations 0.05 pouce
Profondeur de la couche neigeuse Non disponible.
UV 2 sur 12
Pollen 7.70 sur 12
Qualité de l'air Non disponible.
Flu Activity Non disponible.
METAR KOLU 042255Z AUTO 15005KT 10SM CLR 31/21 A2982 RMK AO1

10-Day Weather Forecast

×

Almanac

Astronomie

Sep. 04, 2015 Lever Coucher
Temps réel
Crépuscule civil
Crépuscule nautique
Crépuscule astronomique
Lune
Durée de lumière visible
Longueur du jour
Tomorrow will be .
, % of the Moon is Illuminated

Extrêmes aujourd'hui

State Highs State Lows

Community

WunderPhotos

Upload Photos

1,852,327 Photos téléchargées !

WunderBlogs® & News

Nearby

Qualité de l'air

  Qualité de l'air Indice de la qualité de l'air Polluant
Not available.

Épaisseur de neige

Station Depth Altitude

Activité sismique

Ville Distance Mag. Time & Date
Minimum magnitude displayed is 2.5.

Températures des eaux côtières

Lieu Température

Stations

Stations météo à proximité

Emplacement de la station Température Refroidissement éolien Point de rosée Humidité Vent Precip. Alt. Mise à jour Type